sensor_id;sensor_type;location;lat;lon;timestamp;P1;durP1;ratioP1;P2;durP2;ratioP2
72132;SDS011;60008;50.826;6.896;2022-09-20T00:02:09;6.55;;;1.10;;
72132;SDS011;60008;50.826;6.896;2022-09-20T00:04:54;5.30;;;1.10;;
72132;SDS011;60008;50.826;6.896;2022-09-20T00:07:39;8.55;;;1.00;;
72132;SDS011;60008;50.826;6.896;2022-09-20T00:10:24;5.68;;;1.20;;
72132;SDS011;60008;50.826;6.896;2022-09-20T00:13:11;5.93;;;0.97;;
72132;SDS011;60008;50.826;6.896;2022-09-20T00:15:57;8.90;;;1.20;;
72132;SDS011;60008;50.826;6.896;2022-09-20T00:18:46;10.15;;;1.38;;
72132;SDS011;60008;50.826;6.896;2022-09-20T00:21:33;5.68;;;1.05;;
72132;SDS011;60008;50.826;6.896;2022-09-20T00:24:20;6.90;;;1.00;;
72132;SDS011;60008;50.826;6.896;2022-09-20T00:27:05;6.70;;;1.20;;
72132;SDS011;60008;50.826;6.896;2022-09-20T00:29:49;5.93;;;0.98;;
72132;SDS011;60008;50.826;6.896;2022-09-20T00:32:34;9.27;;;1.02;;
72132;SDS011;60008;50.826;6.896;2022-09-20T00:35:19;6.50;;;1.05;;
72132;SDS011;60008;50.826;6.896;2022-09-20T00:38:04;4.20;;;1.15;;
72132;SDS011;60008;50.826;6.896;2022-09-20T00:40:49;6.70;;;1.23;;
72132;SDS011;60008;50.826;6.896;2022-09-20T00:43:44;7.05;;;1.20;;
72132;SDS011;60008;50.826;6.896;2022-09-20T00:46:34;8.20;;;1.30;;
72132;SDS011;60008;50.826;6.896;2022-09-20T00:49:25;9.30;;;1.55;;
72132;SDS011;60008;50.826;6.896;2022-09-20T00:52:12;7.55;;;1.10;;
72132;SDS011;60008;50.826;6.896;2022-09-20T00:54:58;6.37;;;1.43;;
72132;SDS011;60008;50.826;6.896;2022-09-20T00:57:44;7.20;;;0.98;;
72132;SDS011;60008;50.826;6.896;2022-09-20T01:00:30;3.72;;;0.93;;
72132;SDS011;60008;50.826;6.896;2022-09-20T01:03:16;5.90;;;1.30;;
72132;SDS011;60008;50.826;6.896;2022-09-20T01:06:08;10.05;;;1.40;;
72132;SDS011;60008;50.826;6.896;2022-09-20T01:08:57;6.53;;;1.50;;
72132;SDS011;60008;50.826;6.896;2022-09-20T01:11:46;8.40;;;1.15;;
72132;SDS011;60008;50.826;6.896;2022-09-20T01:14:31;8.00;;;1.23;;
72132;SDS011;60008;50.826;6.896;2022-09-20T01:17:19;5.97;;;1.20;;
72132;SDS011;60008;50.826;6.896;2022-09-20T01:29:41;4.70;;;1.30;;
72132;SDS011;60008;50.826;6.896;2022-09-20T01:32:33;4.30;;;1.77;;
72132;SDS011;60008;50.826;6.896;2022-09-20T01:35:26;4.95;;;1.48;;
72132;SDS011;60008;50.826;6.896;2022-09-20T01:41:20;3.55;;;1.23;;
72132;SDS011;60008;50.826;6.896;2022-09-20T01:50:34;6.65;;;1.50;;
72132;SDS011;60008;50.826;6.896;2022-09-20T01:53:47;9.03;;;1.90;;
72132;SDS011;60008;50.826;6.896;2022-09-20T01:59:43;4.75;;;1.58;;
72132;SDS011;60008;50.826;6.896;2022-09-20T02:05:57;8.07;;;1.83;;
72132;SDS011;60008;50.826;6.896;2022-09-20T02:08:52;11.23;;;1.63;;
72132;SDS011;60008;50.826;6.896;2022-09-20T02:15:12;5.65;;;1.40;;
72132;SDS011;60008;50.826;6.896;2022-09-20T02:18:28;7.93;;;1.52;;
72132;SDS011;60008;50.826;6.896;2022-09-20T02:25:30;5.57;;;1.53;;
72132;SDS011;60008;50.826;6.896;2022-09-20T02:40:59;5.17;;;1.53;;
72132;SDS011;60008;50.826;6.896;2022-09-20T02:56:29;5.63;;;1.60;;
72132;SDS011;60008;50.826;6.896;2022-09-20T03:11:56;7.37;;;1.30;;
72132;SDS011;60008;50.826;6.896;2022-09-20T03:18:18;7.97;;;1.30;;
72132;SDS011;60008;50.826;6.896;2022-09-20T03:24:31;5.40;;;1.50;;
72132;SDS011;60008;50.826;6.896;2022-09-20T03:27:39;5.33;;;1.27;;
72132;SDS011;60008;50.826;6.896;2022-09-20T03:39:36;6.35;;;1.15;;
72132;SDS011;60008;50.826;6.896;2022-09-20T03:42:29;5.57;;;1.10;;
72132;SDS011;60008;50.826;6.896;2022-09-20T03:51:55;8.05;;;1.40;;
72132;SDS011;60008;50.826;6.896;2022-09-20T03:54:52;7.32;;;1.30;;
72132;SDS011;60008;50.826;6.896;2022-09-20T04:03:52;7.40;;;1.50;;
72132;SDS011;60008;50.826;6.896;2022-09-20T04:16:03;4.68;;;1.27;;
72132;SDS011;60008;50.826;6.896;2022-09-20T04:18:54;12.63;;;1.50;;
72132;SDS011;60008;50.826;6.896;2022-09-20T04:21:55;6.53;;;1.38;;
72132;SDS011;60008;50.826;6.896;2022-09-20T04:24:49;5.63;;;1.33;;
72132;SDS011;60008;50.826;6.896;2022-09-20T04:27:50;3.20;;;1.17;;
72132;SDS011;60008;50.826;6.896;2022-09-20T04:30:40;6.97;;;1.50;;
72132;SDS011;60008;50.826;6.896;2022-09-20T04:33:28;7.60;;;1.60;;
72132;SDS011;60008;50.826;6.896;2022-09-20T04:39:38;9.90;;;1.52;;
72132;SDS011;60008;50.826;6.896;2022-09-20T04:45:53;5.65;;;1.58;;
72132;SDS011;60008;50.826;6.896;2022-09-20T05:10:56;10.13;;;1.45;;
72132;SDS011;60008;50.826;6.896;2022-09-20T05:23:00;7.05;;;1.25;;
72132;SDS011;60008;50.826;6.896;2022-09-20T05:32:59;5.70;;;1.45;;
72132;SDS011;60008;50.826;6.896;2022-09-20T05:42:18;5.47;;;1.52;;
72132;SDS011;60008;50.826;6.896;2022-09-20T05:45:28;13.07;;;1.67;;
72132;SDS011;60008;50.826;6.896;2022-09-20T05:51:55;15.65;;;2.00;;
72132;SDS011;60008;50.826;6.896;2022-09-20T05:58:15;7.22;;;2.50;;
72132;SDS011;60008;50.826;6.896;2022-09-20T06:01:28;8.17;;;2.23;;
72132;SDS011;60008;50.826;6.896;2022-09-20T06:04:19;8.25;;;2.00;;
72132;SDS011;60008;50.826;6.896;2022-09-20T06:13:55;6.50;;;2.25;;
72132;SDS011;60008;50.826;6.896;2022-09-20T06:16:52;13.43;;;2.73;;
72132;SDS011;60008;50.826;6.896;2022-09-20T06:22:54;10.70;;;3.13;;
72132;SDS011;60008;50.826;6.896;2022-09-20T06:25:46;10.73;;;3.30;;
72132;SDS011;60008;50.826;6.896;2022-09-20T06:28:39;11.27;;;3.70;;
72132;SDS011;60008;50.826;6.896;2022-09-20T06:31:28;11.50;;;3.53;;
72132;SDS011;60008;50.826;6.896;2022-09-20T06:34:13;8.63;;;3.80;;
72132;SDS011;60008;50.826;6.896;2022-09-20T06:37:23;5.50;;;3.58;;
72132;SDS011;60008;50.826;6.896;2022-09-20T06:43:45;11.10;;;3.92;;
72132;SDS011;60008;50.826;6.896;2022-09-20T06:46:33;9.23;;;4.10;;
72132;SDS011;60008;50.826;6.896;2022-09-20T06:49:22;9.85;;;4.65;;
72132;SDS011;60008;50.826;6.896;2022-09-20T06:52:11;10.52;;;4.07;;
72132;SDS011;60008;50.826;6.896;2022-09-20T06:54:59;9.60;;;4.93;;
72132;SDS011;60008;50.826;6.896;2022-09-20T06:57:44;10.32;;;5.05;;
72132;SDS011;60008;50.826;6.896;2022-09-20T07:00:29;11.80;;;4.60;;
72132;SDS011;60008;50.826;6.896;2022-09-20T07:03:14;11.13;;;5.15;;
72132;SDS011;60008;50.826;6.896;2022-09-20T07:05:59;9.68;;;4.78;;
72132;SDS011;60008;50.826;6.896;2022-09-20T07:08:45;9.43;;;4.47;;
72132;SDS011;60008;50.826;6.896;2022-09-20T07:11:31;12.20;;;4.57;;
72132;SDS011;60008;50.826;6.896;2022-09-20T07:14:17;8.80;;;4.77;;
72132;SDS011;60008;50.826;6.896;2022-09-20T07:17:03;13.65;;;4.63;;
72132;SDS011;60008;50.826;6.896;2022-09-20T07:19:48;7.95;;;3.88;;
72132;SDS011;60008;50.826;6.896;2022-09-20T07:22:33;9.23;;;3.88;;
72132;SDS011;60008;50.826;6.896;2022-09-20T07:25:19;10.02;;;3.70;;
72132;SDS011;60008;50.826;6.896;2022-09-20T07:28:04;10.50;;;4.30;;
72132;SDS011;60008;50.826;6.896;2022-09-20T07:30:49;13.55;;;4.15;;
72132;SDS011;60008;50.826;6.896;2022-09-20T07:33:35;9.13;;;3.72;;
72132;SDS011;60008;50.826;6.896;2022-09-20T07:36:20;10.73;;;3.30;;
72132;SDS011;60008;50.826;6.896;2022-09-20T07:39:05;9.68;;;3.00;;
72132;SDS011;60008;50.826;6.896;2022-09-20T07:41:50;7.53;;;2.97;;
72132;SDS011;60008;50.826;6.896;2022-09-20T07:44:35;9.75;;;2.72;;
72132;SDS011;60008;50.826;6.896;2022-09-20T07:47:20;6.55;;;2.28;;
72132;SDS011;60008;50.826;6.896;2022-09-20T07:50:05;5.78;;;2.38;;
72132;SDS011;60008;50.826;6.896;2022-09-20T07:52:51;5.93;;;2.20;;
72132;SDS011;60008;50.826;6.896;2022-09-20T07:55:40;6.40;;;2.33;;
72132;SDS011;60008;50.826;6.896;2022-09-20T07:58:24;9.55;;;2.70;;
72132;SDS011;60008;50.826;6.896;2022-09-20T08:01:11;10.45;;;2.53;;
72132;SDS011;60008;50.826;6.896;2022-09-20T08:03:57;8.00;;;2.38;;
72132;SDS011;60008;50.826;6.896;2022-09-20T08:06:42;6.32;;;2.08;;
72132;SDS011;60008;50.826;6.896;2022-09-20T08:09:29;6.23;;;2.40;;
72132;SDS011;60008;50.826;6.896;2022-09-20T08:12:14;13.88;;;2.50;;
72132;SDS011;60008;50.826;6.896;2022-09-20T08:15:19;7.72;;;2.03;;
72132;SDS011;60008;50.826;6.896;2022-09-20T08:18:10;6.57;;;2.10;;
72132;SDS011;60008;50.826;6.896;2022-09-20T08:20:55;7.00;;;1.92;;
72132;SDS011;60008;50.826;6.896;2022-09-20T08:23:41;5.60;;;1.80;;
72132;SDS011;60008;50.826;6.896;2022-09-20T08:26:28;4.90;;;1.52;;
72132;SDS011;60008;50.826;6.896;2022-09-20T08:29:14;5.95;;;1.48;;
72132;SDS011;60008;50.826;6.896;2022-09-20T08:31:59;3.53;;;1.30;;
72132;SDS011;60008;50.826;6.896;2022-09-20T08:34:45;4.43;;;1.00;;
72132;SDS011;60008;50.826;6.896;2022-09-20T08:37:33;5.60;;;1.40;;
72132;SDS011;60008;50.826;6.896;2022-09-20T08:40:19;8.60;;;1.60;;
72132;SDS011;60008;50.826;6.896;2022-09-20T08:43:07;4.95;;;1.60;;
72132;SDS011;60008;50.826;6.896;2022-09-20T08:45:57;6.38;;;1.40;;
72132;SDS011;60008;50.826;6.896;2022-09-20T08:48:49;7.40;;;1.48;;
72132;SDS011;60008;50.826;6.896;2022-09-20T08:51:39;8.60;;;1.43;;
72132;SDS011;60008;50.826;6.896;2022-09-20T08:54:25;6.68;;;1.40;;
72132;SDS011;60008;50.826;6.896;2022-09-20T08:57:16;5.20;;;2.10;;
72132;SDS011;60008;50.826;6.896;2022-09-20T09:00:04;3.58;;;1.38;;
72132;SDS011;60008;50.826;6.896;2022-09-20T09:02:54;5.57;;;1.60;;
72132;SDS011;60008;50.826;6.896;2022-09-20T09:05:43;5.33;;;1.13;;
72132;SDS011;60008;50.826;6.896;2022-09-20T09:08:34;5.75;;;1.35;;
72132;SDS011;60008;50.826;6.896;2022-09-20T09:11:22;5.07;;;1.52;;
72132;SDS011;60008;50.826;6.896;2022-09-20T09:14:11;4.57;;;1.08;;
72132;SDS011;60008;50.826;6.896;2022-09-20T09:17:28;4.57;;;1.05;;
72132;SDS011;60008;50.826;6.896;2022-09-20T09:23:06;3.55;;;0.80;;
72132;SDS011;60008;50.826;6.896;2022-09-20T09:25:55;4.63;;;1.00;;
72132;SDS011;60008;50.826;6.896;2022-09-20T09:28:40;5.97;;;0.90;;
72132;SDS011;60008;50.826;6.896;2022-09-20T09:31:25;7.50;;;0.93;;
72132;SDS011;60008;50.826;6.896;2022-09-20T09:34:27;3.33;;;0.80;;
72132;SDS011;60008;50.826;6.896;2022-09-20T09:37:28;7.78;;;0.88;;
72132;SDS011;60008;50.826;6.896;2022-09-20T09:40:16;6.40;;;1.33;;
72132;SDS011;60008;50.826;6.896;2022-09-20T09:43:02;5.57;;;1.20;;
72132;SDS011;60008;50.826;6.896;2022-09-20T09:45:47;6.82;;;1.00;;
72132;SDS011;60008;50.826;6.896;2022-09-20T09:48:33;4.93;;;1.40;;
72132;SDS011;60008;50.826;6.896;2022-09-20T09:51:22;5.85;;;1.50;;
72132;SDS011;60008;50.826;6.896;2022-09-20T09:54:08;5.35;;;1.40;;
72132;SDS011;60008;50.826;6.896;2022-09-20T09:57:47;4.65;;;1.30;;
72132;SDS011;60008;50.826;6.896;2022-09-20T10:00:24;2.83;;;0.90;;
72132;SDS011;60008;50.826;6.896;2022-09-20T10:03:15;4.67;;;0.87;;
72132;SDS011;60008;50.826;6.896;2022-09-20T10:18:46;4.43;;;0.97;;
72132;SDS011;60008;50.826;6.896;2022-09-20T10:21:40;6.30;;;0.80;;
72132;SDS011;60008;50.826;6.896;2022-09-20T10:31:03;4.07;;;1.10;;
72132;SDS011;60008;50.826;6.896;2022-09-20T10:36:56;5.32;;;0.95;;
72132;SDS011;60008;50.826;6.896;2022-09-20T10:39:42;4.88;;;1.05;;
72132;SDS011;60008;50.826;6.896;2022-09-20T10:45:53;6.15;;;1.00;;
72132;SDS011;60008;50.826;6.896;2022-09-20T10:49:26;4.70;;;1.20;;
72132;SDS011;60008;50.826;6.896;2022-09-20T10:58:51;5.95;;;0.70;;
72132;SDS011;60008;50.826;6.896;2022-09-20T11:08:01;5.28;;;0.70;;
72132;SDS011;60008;50.826;6.896;2022-09-20T11:10:52;2.85;;;1.10;;
72132;SDS011;60008;50.826;6.896;2022-09-20T11:16:48;4.50;;;0.80;;
72132;SDS011;60008;50.826;6.896;2022-09-20T11:22:57;3.38;;;0.90;;
72132;SDS011;60008;50.826;6.896;2022-09-20T11:25:48;4.60;;;0.98;;
72132;SDS011;60008;50.826;6.896;2022-09-20T11:28:45;7.43;;;0.75;;
72132;SDS011;60008;50.826;6.896;2022-09-20T11:31:37;4.55;;;1.05;;
72132;SDS011;60008;50.826;6.896;2022-09-20T11:34:28;6.23;;;1.20;;
72132;SDS011;60008;50.826;6.896;2022-09-20T11:37:17;4.78;;;1.10;;
72132;SDS011;60008;50.826;6.896;2022-09-20T11:40:06;9.70;;;1.55;;
72132;SDS011;60008;50.826;6.896;2022-09-20T11:43:03;3.80;;;0.80;;
72132;SDS011;60008;50.826;6.896;2022-09-20T11:45:50;5.28;;;0.90;;
72132;SDS011;60008;50.826;6.896;2022-09-20T11:48:43;6.37;;;1.00;;
72132;SDS011;60008;50.826;6.896;2022-09-20T11:54:28;4.80;;;1.33;;
72132;SDS011;60008;50.826;6.896;2022-09-20T11:57:27;4.63;;;1.38;;
72132;SDS011;60008;50.826;6.896;2022-09-20T12:00:13;4.65;;;1.20;;
72132;SDS011;60008;50.826;6.896;2022-09-20T12:02:58;4.50;;;1.17;;
72132;SDS011;60008;50.826;6.896;2022-09-20T12:05:44;3.92;;;1.10;;
72132;SDS011;60008;50.826;6.896;2022-09-20T12:08:31;4.78;;;1.20;;
72132;SDS011;60008;50.826;6.896;2022-09-20T12:11:27;5.88;;;1.27;;
72132;SDS011;60008;50.826;6.896;2022-09-20T12:14:16;5.80;;;2.08;;
72132;SDS011;60008;50.826;6.896;2022-09-20T12:17:03;2.63;;;1.13;;
72132;SDS011;60008;50.826;6.896;2022-09-20T12:19:49;7.32;;;1.20;;
72132;SDS011;60008;50.826;6.896;2022-09-20T12:22:34;5.63;;;1.50;;
72132;SDS011;60008;50.826;6.896;2022-09-20T12:25:36;5.05;;;1.30;;
72132;SDS011;60008;50.826;6.896;2022-09-20T12:28:31;6.45;;;1.10;;
72132;SDS011;60008;50.826;6.896;2022-09-20T12:39:49;8.52;;;2.13;;
72132;SDS011;60008;50.826;6.896;2022-09-20T12:42:38;4.47;;;1.00;;
72132;SDS011;60008;50.826;6.896;2022-09-20T12:45:24;5.27;;;1.00;;
72132;SDS011;60008;50.826;6.896;2022-09-20T12:48:14;5.45;;;0.68;;
72132;SDS011;60008;50.826;6.896;2022-09-20T12:51:25;5.30;;;0.68;;
72132;SDS011;60008;50.826;6.896;2022-09-20T12:54:47;2.97;;;0.85;;
72132;SDS011;60008;50.826;6.896;2022-09-20T12:57:33;5.88;;;0.85;;
72132;SDS011;60008;50.826;6.896;2022-09-20T13:03:22;2.40;;;0.75;;
72132;SDS011;60008;50.826;6.896;2022-09-20T13:06:22;4.55;;;1.33;;
72132;SDS011;60008;50.826;6.896;2022-09-20T13:09:08;6.78;;;1.30;;
72132;SDS011;60008;50.826;6.896;2022-09-20T13:11:56;2.40;;;0.70;;
72132;SDS011;60008;50.826;6.896;2022-09-20T13:14:46;5.00;;;1.13;;
72132;SDS011;60008;50.826;6.896;2022-09-20T13:17:31;6.00;;;0.57;;
72132;SDS011;60008;50.826;6.896;2022-09-20T13:20:24;5.40;;;0.90;;
72132;SDS011;60008;50.826;6.896;2022-09-20T13:23:16;2.63;;;0.60;;
72132;SDS011;60008;50.826;6.896;2022-09-20T13:26:05;5.97;;;0.63;;
72132;SDS011;60008;50.826;6.896;2022-09-20T13:28:53;4.60;;;1.00;;
72132;SDS011;60008;50.826;6.896;2022-09-20T13:31:40;2.85;;;0.70;;
72132;SDS011;60008;50.826;6.896;2022-09-20T13:34:25;2.78;;;0.60;;
72132;SDS011;60008;50.826;6.896;2022-09-20T13:37:17;2.75;;;0.50;;
72132;SDS011;60008;50.826;6.896;2022-09-20T13:40:05;6.13;;;1.02;;
72132;SDS011;60008;50.826;6.896;2022-09-20T13:42:51;2.53;;;0.80;;
72132;SDS011;60008;50.826;6.896;2022-09-20T13:45:58;7.30;;;0.85;;
72132;SDS011;60008;50.826;6.896;2022-09-20T13:49:41;2.95;;;0.80;;
72132;SDS011;60008;50.826;6.896;2022-09-20T13:52:14;6.97;;;1.10;;
72132;SDS011;60008;50.826;6.896;2022-09-20T13:58:52;4.33;;;0.70;;
72132;SDS011;60008;50.826;6.896;2022-09-20T14:01:30;4.28;;;0.70;;
72132;SDS011;60008;50.826;6.896;2022-09-20T14:04:21;1.77;;;0.70;;
72132;SDS011;60008;50.826;6.896;2022-09-20T14:07:08;4.53;;;0.70;;
72132;SDS011;60008;50.826;6.896;2022-09-20T14:09:54;2.30;;;0.57;;
72132;SDS011;60008;50.826;6.896;2022-09-20T14:12:40;2.67;;;0.60;;
72132;SDS011;60008;50.826;6.896;2022-09-20T14:15:34;3.83;;;0.60;;
72132;SDS011;60008;50.826;6.896;2022-09-20T14:18:21;1.42;;;0.50;;
72132;SDS011;60008;50.826;6.896;2022-09-20T14:21:08;2.92;;;0.50;;
72132;SDS011;60008;50.826;6.896;2022-09-20T14:26:59;6.47;;;0.47;;
72132;SDS011;60008;50.826;6.896;2022-09-20T14:29:50;5.38;;;0.60;;
72132;SDS011;60008;50.826;6.896;2022-09-20T14:32:38;4.60;;;0.65;;
72132;SDS011;60008;50.826;6.896;2022-09-20T14:35:35;4.75;;;0.60;;
72132;SDS011;60008;50.826;6.896;2022-09-20T14:38:21;4.03;;;0.60;;
72132;SDS011;60008;50.826;6.896;2022-09-20T14:41:10;4.00;;;0.40;;
72132;SDS011;60008;50.826;6.896;2022-09-20T14:43:56;3.22;;;0.40;;
72132;SDS011;60008;50.826;6.896;2022-09-20T14:46:43;3.15;;;0.43;;
72132;SDS011;60008;50.826;6.896;2022-09-20T14:49:30;1.67;;;0.73;;
72132;SDS011;60008;50.826;6.896;2022-09-20T14:52:21;0.93;;;0.30;;
72132;SDS011;60008;50.826;6.896;2022-09-20T14:55:17;1.53;;;0.40;;
72132;SDS011;60008;50.826;6.896;2022-09-20T14:58:09;3.33;;;0.45;;
72132;SDS011;60008;50.826;6.896;2022-09-20T15:04:17;1.88;;;0.40;;
72132;SDS011;60008;50.826;6.896;2022-09-20T15:07:06;2.58;;;0.50;;
72132;SDS011;60008;50.826;6.896;2022-09-20T15:09:54;5.97;;;0.93;;
72132;SDS011;60008;50.826;6.896;2022-09-20T15:12:39;2.45;;;0.70;;
72132;SDS011;60008;50.826;6.896;2022-09-20T15:15:25;4.70;;;0.80;;
72132;SDS011;60008;50.826;6.896;2022-09-20T15:21:17;2.80;;;0.60;;
72132;SDS011;60008;50.826;6.896;2022-09-20T15:24:03;3.13;;;0.60;;
72132;SDS011;60008;50.826;6.896;2022-09-20T15:26:48;3.58;;;0.63;;
72132;SDS011;60008;50.826;6.896;2022-09-20T15:29:32;6.15;;;0.75;;
72132;SDS011;60008;50.826;6.896;2022-09-20T15:32:17;4.35;;;0.70;;
72132;SDS011;60008;50.826;6.896;2022-09-20T15:35:02;4.40;;;0.60;;
72132;SDS011;60008;50.826;6.896;2022-09-20T15:37:48;3.90;;;0.80;;
72132;SDS011;60008;50.826;6.896;2022-09-20T15:40:43;3.80;;;0.57;;
72132;SDS011;60008;50.826;6.896;2022-09-20T15:43:30;4.10;;;0.60;;
72132;SDS011;60008;50.826;6.896;2022-09-20T15:46:20;3.67;;;0.80;;
72132;SDS011;60008;50.826;6.896;2022-09-20T15:49:06;3.88;;;0.70;;
72132;SDS011;60008;50.826;6.896;2022-09-20T15:51:54;2.10;;;0.63;;
72132;SDS011;60008;50.826;6.896;2022-09-20T15:54:39;5.20;;;0.80;;
72132;SDS011;60008;50.826;6.896;2022-09-20T15:57:24;6.53;;;0.75;;
72132;SDS011;60008;50.826;6.896;2022-09-20T16:00:10;1.50;;;0.55;;
72132;SDS011;60008;50.826;6.896;2022-09-20T16:02:56;5.30;;;0.90;;
72132;SDS011;60008;50.826;6.896;2022-09-20T16:05:40;1.83;;;0.50;;
72132;SDS011;60008;50.826;6.896;2022-09-20T16:08:29;3.72;;;0.65;;
72132;SDS011;60008;50.826;6.896;2022-09-20T16:11:16;4.60;;;0.68;;
72132;SDS011;60008;50.826;6.896;2022-09-20T16:14:06;3.08;;;0.60;;
72132;SDS011;60008;50.826;6.896;2022-09-20T16:16:52;8.05;;;1.00;;
72132;SDS011;60008;50.826;6.896;2022-09-20T16:19:36;5.23;;;0.90;;
72132;SDS011;60008;50.826;6.896;2022-09-20T16:22:22;3.03;;;1.00;;
72132;SDS011;60008;50.826;6.896;2022-09-20T16:25:07;4.28;;;1.08;;
72132;SDS011;60008;50.826;6.896;2022-09-20T16:27:52;3.83;;;0.80;;
72132;SDS011;60008;50.826;6.896;2022-09-20T16:30:37;2.63;;;0.90;;
72132;SDS011;60008;50.826;6.896;2022-09-20T16:33:22;2.50;;;0.60;;
72132;SDS011;60008;50.826;6.896;2022-09-20T16:36:07;2.45;;;0.73;;
72132;SDS011;60008;50.826;6.896;2022-09-20T16:38:52;2.90;;;0.68;;
72132;SDS011;60008;50.826;6.896;2022-09-20T16:41:38;3.30;;;0.70;;
72132;SDS011;60008;50.826;6.896;2022-09-20T16:44:24;3.33;;;0.93;;
72132;SDS011;60008;50.826;6.896;2022-09-20T16:47:09;4.13;;;0.90;;
72132;SDS011;60008;50.826;6.896;2022-09-20T16:49:56;4.63;;;1.10;;
72132;SDS011;60008;50.826;6.896;2022-09-20T16:52:42;4.57;;;1.00;;
72132;SDS011;60008;50.826;6.896;2022-09-20T16:55:27;3.25;;;0.95;;
72132;SDS011;60008;50.826;6.896;2022-09-20T16:58:12;1.98;;;0.70;;
72132;SDS011;60008;50.826;6.896;2022-09-20T17:01:03;3.07;;;0.70;;
72132;SDS011;60008;50.826;6.896;2022-09-20T17:03:48;3.55;;;0.88;;
72132;SDS011;60008;50.826;6.896;2022-09-20T17:06:34;2.53;;;0.80;;
72132;SDS011;60008;50.826;6.896;2022-09-20T17:09:21;3.65;;;0.80;;
72132;SDS011;60008;50.826;6.896;2022-09-20T17:12:05;2.58;;;0.80;;
72132;SDS011;60008;50.826;6.896;2022-09-20T17:14:53;4.03;;;0.63;;
72132;SDS011;60008;50.826;6.896;2022-09-20T17:17:38;2.67;;;0.63;;
72132;SDS011;60008;50.826;6.896;2022-09-20T17:20:23;4.45;;;0.90;;
72132;SDS011;60008;50.826;6.896;2022-09-20T17:23:11;3.78;;;0.70;;
72132;SDS011;60008;50.826;6.896;2022-09-20T17:26:02;6.32;;;0.55;;
72132;SDS011;60008;50.826;6.896;2022-09-20T17:28:51;4.00;;;0.80;;
72132;SDS011;60008;50.826;6.896;2022-09-20T17:31:42;2.55;;;0.70;;
72132;SDS011;60008;50.826;6.896;2022-09-20T17:34:35;4.32;;;0.88;;
72132;SDS011;60008;50.826;6.896;2022-09-20T17:37:20;6.15;;;0.93;;
72132;SDS011;60008;50.826;6.896;2022-09-20T17:40:05;2.50;;;0.70;;
72132;SDS011;60008;50.826;6.896;2022-09-20T17:42:51;2.17;;;0.70;;
72132;SDS011;60008;50.826;6.896;2022-09-20T17:45:35;4.10;;;0.60;;
72132;SDS011;60008;50.826;6.896;2022-09-20T17:48:20;3.60;;;0.75;;
72132;SDS011;60008;50.826;6.896;2022-09-20T17:51:08;2.75;;;0.70;;
72132;SDS011;60008;50.826;6.896;2022-09-20T17:53:56;2.83;;;0.80;;
72132;SDS011;60008;50.826;6.896;2022-09-20T17:56:43;2.43;;;0.67;;
72132;SDS011;60008;50.826;6.896;2022-09-20T17:59:29;6.65;;;0.80;;
72132;SDS011;60008;50.826;6.896;2022-09-20T18:02:16;3.72;;;0.82;;
72132;SDS011;60008;50.826;6.896;2022-09-20T18:05:00;4.70;;;0.80;;
72132;SDS011;60008;50.826;6.896;2022-09-20T18:07:45;6.50;;;0.70;;
72132;SDS011;60008;50.826;6.896;2022-09-20T18:10:31;6.47;;;0.80;;
72132;SDS011;60008;50.826;6.896;2022-09-20T18:13:16;4.13;;;0.88;;
72132;SDS011;60008;50.826;6.896;2022-09-20T18:16:02;6.85;;;1.00;;
72132;SDS011;60008;50.826;6.896;2022-09-20T18:18:48;3.35;;;0.90;;
72132;SDS011;60008;50.826;6.896;2022-09-20T18:21:34;5.05;;;1.35;;
72132;SDS011;60008;50.826;6.896;2022-09-20T18:24:20;6.07;;;1.07;;
72132;SDS011;60008;50.826;6.896;2022-09-20T18:27:05;2.22;;;0.80;;
72132;SDS011;60008;50.826;6.896;2022-09-20T18:29:50;5.05;;;0.90;;
72132;SDS011;60008;50.826;6.896;2022-09-20T18:32:35;4.88;;;0.90;;
72132;SDS011;60008;50.826;6.896;2022-09-20T18:35:20;4.20;;;1.20;;
72132;SDS011;60008;50.826;6.896;2022-09-20T18:38:05;5.87;;;1.30;;
72132;SDS011;60008;50.826;6.896;2022-09-20T18:40:57;4.38;;;1.17;;
72132;SDS011;60008;50.826;6.896;2022-09-20T18:43:45;5.40;;;1.05;;
72132;SDS011;60008;50.826;6.896;2022-09-20T18:46:30;5.47;;;1.17;;
72132;SDS011;60008;50.826;6.896;2022-09-20T18:49:15;6.22;;;0.93;;
72132;SDS011;60008;50.826;6.896;2022-09-20T18:52:01;3.77;;;0.93;;
72132;SDS011;60008;50.826;6.896;2022-09-20T18:54:46;3.13;;;1.00;;
72132;SDS011;60008;50.826;6.896;2022-09-20T18:57:31;2.92;;;0.85;;
72132;SDS011;60008;50.826;6.896;2022-09-20T19:00:17;5.15;;;1.10;;
72132;SDS011;60008;50.826;6.896;2022-09-20T19:03:07;9.18;;;1.20;;
72132;SDS011;60008;50.826;6.896;2022-09-20T19:06:05;3.73;;;1.23;;
72132;SDS011;60008;50.826;6.896;2022-09-20T19:08:59;3.08;;;1.05;;
72132;SDS011;60008;50.826;6.896;2022-09-20T19:11:52;5.22;;;1.00;;
72132;SDS011;60008;50.826;6.896;2022-09-20T19:14:53;3.85;;;1.08;;
72132;SDS011;60008;50.826;6.896;2022-09-20T19:18:04;6.18;;;1.38;;
72132;SDS011;60008;50.826;6.896;2022-09-20T19:27:36;10.15;;;1.10;;
72132;SDS011;60008;50.826;6.896;2022-09-20T19:30:21;4.78;;;1.15;;
72132;SDS011;60008;50.826;6.896;2022-09-20T19:33:16;7.38;;;1.10;;
72132;SDS011;60008;50.826;6.896;2022-09-20T19:36:02;7.30;;;1.13;;
72132;SDS011;60008;50.826;6.896;2022-09-20T19:42:17;2.45;;;0.73;;
72132;SDS011;60008;50.826;6.896;2022-09-20T19:45:14;2.83;;;0.98;;
72132;SDS011;60008;50.826;6.896;2022-09-20T19:51:04;3.00;;;0.80;;
72132;SDS011;60008;50.826;6.896;2022-09-20T19:53:54;5.20;;;1.20;;
72132;SDS011;60008;50.826;6.896;2022-09-20T19:56:44;7.03;;;1.10;;
72132;SDS011;60008;50.826;6.896;2022-09-20T19:59:40;6.22;;;1.00;;
72132;SDS011;60008;50.826;6.896;2022-09-20T20:02:25;8.50;;;1.42;;
72132;SDS011;60008;50.826;6.896;2022-09-20T20:05:12;7.17;;;1.20;;
72132;SDS011;60008;50.826;6.896;2022-09-20T20:11:39;6.38;;;1.38;;
72132;SDS011;60008;50.826;6.896;2022-09-20T20:17:43;7.18;;;1.30;;
72132;SDS011;60008;50.826;6.896;2022-09-20T20:20:37;6.27;;;1.10;;
72132;SDS011;60008;50.826;6.896;2022-09-20T20:26:32;5.25;;;1.10;;
72132;SDS011;60008;50.826;6.896;2022-09-20T20:29:17;7.32;;;1.23;;
72132;SDS011;60008;50.826;6.896;2022-09-20T20:32:02;3.83;;;1.13;;
72132;SDS011;60008;50.826;6.896;2022-09-20T20:34:47;4.13;;;0.90;;
72132;SDS011;60008;50.826;6.896;2022-09-20T20:37:33;4.35;;;1.30;;
72132;SDS011;60008;50.826;6.896;2022-09-20T20:40:18;6.45;;;1.70;;
72132;SDS011;60008;50.826;6.896;2022-09-20T20:43:03;6.05;;;1.20;;
72132;SDS011;60008;50.826;6.896;2022-09-20T20:45:49;6.90;;;1.50;;
72132;SDS011;60008;50.826;6.896;2022-09-20T20:48:34;9.70;;;1.73;;
72132;SDS011;60008;50.826;6.896;2022-09-20T20:51:21;6.93;;;1.48;;
72132;SDS011;60008;50.826;6.896;2022-09-20T20:54:06;3.80;;;1.42;;
72132;SDS011;60008;50.826;6.896;2022-09-20T20:56:51;3.25;;;1.40;;
72132;SDS011;60008;50.826;6.896;2022-09-20T20:59:36;4.88;;;1.70;;
72132;SDS011;60008;50.826;6.896;2022-09-20T21:02:21;6.33;;;1.67;;
72132;SDS011;60008;50.826;6.896;2022-09-20T21:05:06;8.13;;;1.50;;
72132;SDS011;60008;50.826;6.896;2022-09-20T21:07:51;7.85;;;1.42;;
72132;SDS011;60008;50.826;6.896;2022-09-20T21:10:36;3.72;;;1.42;;
72132;SDS011;60008;50.826;6.896;2022-09-20T21:13:21;6.22;;;1.75;;
72132;SDS011;60008;50.826;6.896;2022-09-20T21:16:13;7.33;;;1.90;;
72132;SDS011;60008;50.826;6.896;2022-09-20T21:19:01;6.82;;;1.33;;
72132;SDS011;60008;50.826;6.896;2022-09-20T21:21:47;3.95;;;1.30;;
72132;SDS011;60008;50.826;6.896;2022-09-20T21:24:32;7.18;;;1.63;;
72132;SDS011;60008;50.826;6.896;2022-09-20T21:27:17;5.65;;;1.63;;
72132;SDS011;60008;50.826;6.896;2022-09-20T21:30:03;6.20;;;1.70;;
72132;SDS011;60008;50.826;6.896;2022-09-20T21:32:48;7.40;;;1.60;;
72132;SDS011;60008;50.826;6.896;2022-09-20T21:35:37;3.55;;;1.60;;
72132;SDS011;60008;50.826;6.896;2022-09-20T21:38:22;7.55;;;1.73;;